Latest Coastal Weather Observations for East Sale

IDV60701

Issued at 7:51 am EST Tuesday 26 May 2015 (issued every 10 minutes, with the page automatically refreshed every 10 minutes)

About coastal observations | Map of coastal stations | Coastal observations for VIC | Marine services | Other Formats
Station Details ID: 085072 Name: EAST SALE AIRPORT Lat: -38.12 Lon: 147.13 Height: 4.6 m
Data from the previous 72 hours. | See also: Recent months at East Sale
Date/Time
EST
Temp

°C
Wind Pressure Rain
since 9am
mm
Weather Cloud Vis
km
Sea
Height
m
Swell
Dir
 
Speed
knots
Gust
knots
hPa Trend Height
m
Period
s
Dir
26/07:30am 1.2 NW 6 7 1030.3 - 0.2 - - 10 - - - -
26/07:00am 1.1 WNW 5 6 1030.1 - 0.2 - - 10 - - - -
26/06:30am 0.8 WNW 6 7 1030.1 - 0.2 - - 10 - - - -
26/06:00am 0.9 WNW 5 6 1029.9 F 0.2 - - 10 - - - -
26/05:30am 1.6 NW 8 9 1029.9 - 0.2 - - 10 - - - -
26/05:00am 1.4 NW 5 6 1029.8 - 0.2 - - 10 - - - -
26/04:30am 1.7 NW 6 7 1029.8 - 0.2 - - 10 - - - -
26/04:00am 1.6 WNW 6 6 1029.8 - 0.2 - - 10 - - - -
26/03:30am 2.1 WNW 4 5 1029.8 - 0.2 - - 10 - - - -
26/03:00am 2.6 WNW 5 6 1030.0 R 0.2 - - 10 - - - -
26/02:30am 2.5 NW 7 8 1030.2 - 0.2 - - 10 - - - -
26/02:00am 2.2 NW 6 6 1030.1 - 0.2 - - 10 - - - -
26/01:30am 3.4 NW 5 6 1030.1 - 0.2 - - 10 - - - -
26/01:11am 3.4 NW 6 6 1030.1 - 0.2 - - 10 - - - -
26/01:00am 2.2 NW 6 7 1030.1 - 0.2 - - 3 - - - -
26/12:51am 1.4 NW 6 7 1030.1 - 0.2 - - 5 - - - -
26/12:47am 2.6 NW 6 7 1030.1 - 0.2 - - 8 - - - -
26/12:00am 3.4 WNW 5 5 1030.5 F 0.2 - - 2 - - - -
 
Date/Time
EST
Temp

°C
Wind Pressure Rain
since 9am
mm
Weather Cloud Vis
km
Sea
Height
m
Swell
Dir
 
Speed
knots
Gust
knots
hPa Trend Height
m
Period
s
Dir
25/11:46pm 2.6 W 5 5 1030.6 - 0.2 - - 6 - - - -
25/11:30pm 2.8 W 5 6 1030.7 - 0.2 - - 10 - - - -
25/11:00pm 3.6 W 6 7 1030.8 - 0.2 - - 10 - - - -
25/10:30pm 3.6 WNW 6 7 1030.8 - 0.2 - - 10 - - - -
25/10:00pm 5.0 WNW 7 7 1031.0 - 0.2 - - 10 - - - -
25/09:30pm 5.9 WNW 6 6 1031.1 - 0.2 - - 10 - - - -
25/09:00pm 6.3 NW 7 9 1031.0 R 0.2 - - 10 - - - -
25/08:30pm 7.0 NNW 6 7 1030.9 - 0.2 - - 8 - - - -
25/08:00pm 4.3 NW 5 5 1030.9 - 0.2 - - 7 - - - -
25/07:30pm 5.2 CALM 0 0 1030.7 - 0.2 - - 8 - - - -
25/07:00pm 6.7 CALM 0 0 1030.3 - 0.2 - - 10 - - - -
25/06:30pm 7.5 SE 2 4 1030.1 - 0.2 - - 10 - - - -
25/06:00pm 7.6 CALM 0 0 1029.9 F 0.2 - - 10 - - - -
25/05:30pm 9.8 CALM 0 0 1029.7 - 0.2 - - 10 - - - -
25/05:00pm 11.1 NNW 4 4 1029.5 - 0.2 - - 10 - - - -
25/04:30pm 13.1 NNW 6 8 1029.2 - 0.0 - - 10 - - - -
25/04:00pm 13.9 N 4 6 1029.4 - 0.0 - - 10 - - - -
25/03:30pm 13.5 N 4 5 1029.5 - 0.0 - - 10 - - - -
25/03:00pm 12.7 NNW 4 5 1029.7 R 0.0 - Mostly cloudy 10 - - - -
25/02:30pm 13.0 NW 4 6 1029.8 - 0.0 - - 10 - - - -
25/02:00pm 14.1 WSW 4 5 1029.9 - 0.0 - - 10 - - - -
25/01:30pm 12.4 W 5 6 1030.2 - 0.0 - - 10 - - - -
25/01:00pm 11.9 NW 6 8 1030.3 - 0.0 - - 10 - - - -
25/12:30pm 11.5 NNW 5 7 1030.6 - 0.0 - - 10 - - - -
25/12:00pm 10.8 NW 4 6 1030.8 F 0.0 - Cloudy 10 - - - -
25/11:30am 10.6 WNW 5 7 1031.5 - 0.0 - - 10 - - - -
25/11:00am 9.3 NW 5 7 1032.0 - 0.0 - - 10 - - - -
25/10:30am 9.2 WNW 7 9 1032.4 - 0.0 - - 10 - - - -
25/10:00am 6.9 WNW 4 6 1032.1 - 0.0 - - 10 - - - -
25/09:30am 5.4 WSW 5 6 1032.0 - 0.0 - - 10 - - - -
25/09:00am 4.8 WNW 6 8 1032.2 F 0.0 - Partly cloudy 10 - - - -
25/08:30am 4.3 WNW 8 9 1032.2 - 0.0 - - 10 - - - -
25/08:00am 3.5 WNW 7 8 1032.0 - 0.0 - - 10 - - - -
25/07:30am 2.9 WNW 6 7 1031.8 - 0.0 - - 10 - - - -
25/07:00am 2.8 NW 5 6 1031.8 - 0.0 - - 10 - - - -
25/06:30am 2.7 NW 5 7 1031.8 - 0.0 - - 10 - - - -
25/06:00am 2.2 W 4 6 1031.5 S 0.0 - Cloudy 10 - - - -
25/05:31am 1.7 WNW 6 9 1031.2 - 0.0 - Partly cloudy 10 - - - -
25/05:30am 1.8 WNW 6 9 1031.2 - 0.0 - Partly cloudy 10 - - - -
25/05:00am 1.1 WNW 4 5 1031.0 - 0.0 - Cloudy 0.4 - - - -
25/04:44am 1.5 NW 2 4 1031.0 - 0.0 - Partly cloudy 0.3 - - - -
25/04:30am 1.9 WNW 4 5 1031.0 - 0.0 - - 4 - - - -
25/04:17am 2.0 WNW 4 4 1030.9 - 0.0 - Partly cloudy 5 - - - -
25/04:00am 1.7 WNW 5 6 1031.1 - 0.0 - Partly cloudy 0.5 - - - -
25/03:30am 2.2 NW 5 6 1031.3 - 0.0 - Partly cloudy 0.3 - - - -
25/03:23am 1.7 NW 6 7 1031.2 - 0.0 - Partly cloudy 1 - - - -
25/03:03am 1.9 WNW 6 8 1031.2 - 0.0 - Partly cloudy 4 - - - -
25/03:00am 2.1 WNW 7 8 1031.2 R 0.0 - Cloudy 2 - - - -
25/02:30am 2.2 NW 7 7 1031.4 - 0.0 - Cloudy 0.5 - - - -
25/02:00am 1.9 NW 7 8 1031.3 - 0.0 - Cloudy 0.5 - - - -
25/01:30am 1.3 NW 7 9 1031.2 - 0.0 - Cloudy 0.8 - - - -
25/01:00am 1.7 NW 5 6 1031.3 - 0.0 - Partly cloudy 0.5 - - - -
25/12:52am 1.5 NW 5 7 1031.3 - 0.0 - Partly cloudy 0.7 - - - -
25/12:36am 1.2 NNW 5 6 1031.3 - 0.0 - - 6 - - - -
25/12:30am 2.8 NNW 5 6 1031.3 - 0.0 - - 8 - - - -
25/12:24am 2.3 NNW 5 6 1031.4 - 0.0 - - 8 - - - -
25/12:00am 1.9 WNW 5 6 1031.5 R 0.0 - Partly cloudy 5 - - - -
 
Date/Time
EST
Temp

°C
Wind Pressure Rain
since 9am
mm
Weather Cloud Vis
km
Sea
Height
m
Swell
Dir
 
Speed
knots
Gust
knots
hPa Trend Height
m
Period
s
Dir
24/11:30pm 1.6 WSW 3 4 1031.4 - 0.0 - - 6 - - - -
24/11:18pm 2.3 WSW 4 5 1031.3 - 0.0 - - 10 - - - -
24/11:00pm 2.1 WSW 3 4 1031.4 - 0.0 - - 1 - - - -
24/10:30pm 2.6 W 4 4 1031.6 - 0.0 - - 5 - - - -
24/10:26pm 2.5 W 4 5 1031.5 - 0.0 - - 6 - - - -
24/10:13pm 2.7 W 5 6 1031.6 - 0.0 - - 8 - - - -
24/10:00pm 2.7 W 6 7 1031.6 - 0.0 - - 6 - - - -
24/09:50pm 2.2 W 7 8 1031.6 - 0.0 - Partly cloudy 4 - - - -
24/09:30pm 1.8 NW 4 4 1031.4 - 0.0 - Partly cloudy 0.6 - - - -
24/09:14pm 1.8 NNW 3 5 1031.4 - 0.0 - Partly cloudy 0.2 - - - -
24/09:06pm 2.6 N 3 3 1031.2 - 0.0 - Partly cloudy 3 - - - -
24/09:02pm 2.5 N 3 3 1031.2 - 0.0 - - 10 - - - -
24/09:00pm 2.1 N 3 3 1031.2 F 0.0 - Mostly clear 10 - - - -
24/08:30pm 3.1 CALM 0 0 1031.5 - 0.0 - - 3 - - - -
24/08:13pm 3.2 CALM 0 0 1031.6 - 0.0 - - 6 - - - -
24/08:00pm 2.6 CALM 0 0 1031.6 - 0.0 - - 10 - - - -
24/07:58pm 2.4 CALM 0 0 1031.6 - 0.0 - - 10 - - - -
24/07:47pm 3.8 CALM 0 0 1031.6 - 0.0 - - 6 - - - -
24/07:45pm 3.6 CALM 0 0 1031.6 - 0.0 - - 8 - - - -
24/07:30pm 4.9 CALM 0 3 1031.6 - 0.0 - - 4 - - - -
24/07:25pm 5.1 E 2 3 1031.6 - 0.0 - - 5 - - - -
24/07:00pm 5.1 E 3 3 1031.4 - 0.0 - - 10 - - - -
24/06:30pm 5.4 ESE 3 4 1031.4 - 0.0 - - 10 - - - -
24/06:00pm 6.1 ENE 3 6 1031.3 S 0.0 - Cloudy 10 - - - -
24/05:30pm 6.8 CALM 0 0 1030.9 - 0.0 - - 10 - - - -
24/05:00pm 8.0 NE 3 3 1030.8 - 0.0 - - 10 - - - -
24/04:30pm 9.4 ESE 4 5 1030.6 - 0.0 - - 10 - - - -
24/04:00pm 11.2 E 5 5 1030.4 - 0.0 - - 10 - - - -
24/03:30pm 11.5 E 4 5 1030.4 - 0.0 - - 10 - - - -
24/03:00pm 11.8 NE 4 5 1030.4 F 0.0 - Mostly clear 10 - - - -
24/02:30pm 12.3 WNW 2 5 1030.7 - 0.0 - - 10 - - - -
24/02:00pm 12.5 NW 1 3 1030.6 - 0.0 - - 10 - - - -
24/01:30pm 12.1 N 3 6 1030.8 - 0.0 - - 10 - - - -
24/01:00pm 10.7 ENE 2 5 1030.8 - 0.0 - - 10 - - - -
24/12:30pm 10.9 N 3 5 1031.3 - 0.0 - - 10 - - - -
24/12:00pm 8.5 NNW 3 5 1031.7 F 0.0 - Mostly clear 10 - - - -
24/11:58am 8.4 NNW 2 4 1031.8 - 0.0 - Partly cloudy 10 - - - -
24/11:30am 7.0 SW 4 5 1032.3 - 0.0 - Partly cloudy 10 - - - -
24/11:00am 6.4 W 5 7 1032.7 - 0.0 - Cloudy 10 - - - -
24/10:37am 6.2 W 4 6 1032.7 - 0.0 - Partly cloudy 9 - - - -
24/10:30am 6.0 WSW 5 6 1032.8 - 0.0 - Cloudy 7 - - - -
24/10:00am 5.3 W 5 6 1032.7 - 0.0 - Cloudy 2 - - - -
24/09:30am 4.9 WNW 5 6 1032.8 - 0.0 - Cloudy 1 - - - -
24/09:01am 4.2 NW 4 6 1032.8 - 0.0 - Cloudy 6 - - - -
24/09:00am 4.2 NW 4 6 1032.7 F 0.0 - Cloudy 10 - - - -
24/08:30am 2.9 NW 5 6 1032.7 - 0.0 - Cloudy 10 - - - -
24/08:00am 1.4 NNW 5 6 1032.4 - 0.0 - Cloudy 10 - - - -
24/07:30am 0.0 WNW 5 6 1032.3 - 0.0 - Cloudy 10 - - - -
24/07:02am -0.7 WNW 4 6 1032.2 - 0.0 - Partly cloudy 9 - - - -
24/07:00am -0.6 WNW 5 6 1032.2 - 0.0 - Partly cloudy 8 - - - -
24/06:58am -0.6 WNW 5 6 1032.2 - 0.0 - Partly cloudy 10 - - - -
24/06:49am -0.7 WNW 5 6 1032.3 - 0.0 - Partly cloudy 2 - - - -
24/06:30am -0.2 WNW 5 5 1032.3 - 0.0 - Partly cloudy 2 - - - -
24/06:00am -0.1 NW 3 4 1032.0 F 0.0 - Mostly cloudy 2 - - - -
24/05:37am -0.6 WNW 3 4 1031.9 - 0.0 - Partly cloudy 1 - - - -
24/05:35am -0.6 WNW 3 4 1031.9 - 0.0 - Partly cloudy 4 - - - -
24/05:30am -0.7 NW 3 4 1031.9 - 0.0 - Partly cloudy 10 - - - -
24/05:23am -0.6 WNW 3 4 1031.9 - 0.0 - - 10 - - - -
24/05:00am -0.7 WSW 3 3 1031.8 - 0.0 - Partly cloudy 2 - - - -
24/04:58am -0.7 WSW 3 3 1031.8 - 0.0 - Partly cloudy 5 - - - -
24/04:30am 0.2 SSW 4 5 1031.7 - 0.0 - Partly cloudy 0.8 - - - -
24/04:18am -0.1 SSW 4 6 1031.6 - 0.0 - Partly cloudy 0.6 - - - -
24/04:13am 0.2 SW 3 4 1031.6 - 0.0 - Partly cloudy 0.5 - - - -
24/04:00am 0.5 SW 4 5 1031.6 - 0.0 - Partly cloudy 0.2 - - - -
24/03:53am 0.6 SSW 4 5 1031.7 - 0.0 - Partly cloudy 0.3 - - - -
24/03:44am 1.0 WSW 3 4 1031.6 - 0.0 - Partly cloudy 4 - - - -
24/03:42am 1.0 WSW 3 3 1031.6 - 0.0 - - 10 - - - -
24/03:31am 1.0 W 4 5 1031.6 - 0.0 - - 6 - - - -
24/03:30am 0.9 W 4 5 1031.6 - 0.0 - - 7 - - - -
24/03:00am 1.1 WNW 5 5 1031.8 R 0.0 - - 10 - - - -
24/02:30am 0.9 NW 4 5 1031.8 - 0.0 - Partly cloudy 10 - - - -
24/02:25am 0.9 NW 5 5 1031.8 - 0.0 - Partly cloudy 10 - - - -
24/02:03am 1.0 NW 7 9 1031.7 - 0.0 - Partly cloudy 6 - - - -
24/02:00am 1.5 NW 7 9 1031.7 - 0.0 - - 8 - - - -
24/01:57am 1.6 NW 6 7 1031.7 - 0.0 - - 9 - - - -
24/01:39am 1.5 NNW 6 8 1031.6 - 0.0 - - 6 - - - -
24/01:30am 2.0 NNW 6 7 1031.7 - 0.0 - - 10 - - - -
24/01:00am 3.1 NW 5 6 1031.6 - 0.0 - - 10 - - - -
24/12:30am 2.6 NW 5 6 1031.8 - 0.0 - - 10 - - - -
24/12:00am 2.0 NNW 4 5 1031.9 R 0.0 - - 10 - - - -
 
Date/Time
EST
Temp

°C
Wind Pressure Rain
since 9am
mm
Weather Cloud Vis
km
Sea
Height
m
Swell
Dir
 
Speed
knots
Gust
knots
hPa Trend Height
m
Period
s
Dir
23/11:30pm 3.2 WNW 5 6 1031.9 - 0.0 - - 10 - - - -
23/11:00pm 4.3 WNW 3 4 1031.9 - 0.0 - - 10 - - - -
23/10:36pm 2.7 WNW 3 4 1031.9 - 0.0 - - 10 - - - -
23/10:30pm 2.5 W 3 4 1031.8 - 0.0 - - 10 - - - -
23/10:12pm 2.2 CALM 0 0 1031.8 - 0.0 - - 5 - - - -
23/10:00pm 2.1 CALM 0 0 1031.6 - 0.0 - - 10 - - - -
23/09:30pm 3.7 NNW 3 4 1031.5 - 0.0 - - 10 - - - -
23/09:00pm 4.9 WNW 5 6 1031.5 F 0.0 - - 10 - - - -
23/08:30pm 6.1 WNW 5 6 1031.5 - 0.0 - - 10 - - - -
23/08:00pm 6.2 WNW 6 7 1031.4 - 0.0 - - 10 - - - -
23/07:30pm 6.8 W 6 7 1031.3 - 0.0 - - 10 - - - -
23/07:00pm 7.4 W 7 8 1031.2 - 0.0 - - 10 - - - -
23/06:30pm 9.0 W 9 11 1031.2 - 0.0 - - 10 - - - -
23/06:00pm 9.1 WNW 8 9 1031.1 F 0.0 - - 10 - - - -
23/05:30pm 10.0 WNW 9 10 1031.0 - 0.0 - - 10 - - - -
23/05:00pm 11.3 WNW 8 9 1030.9 - 0.0 - - 10 - - - -
23/04:30pm 12.3 W 11 14 1030.6 - 0.0 - - 10 - - - -
23/04:00pm 13.2 W 11 15 1030.7 - 0.0 - - 10 - - - -
23/03:30pm 13.5 W 12 15 1030.5 - 0.0 - - 10 - - - -
23/03:00pm 13.7 W 14 18 1030.4 F 0.0 - - 10 - - - -
23/02:30pm 13.9 W 13 17 1030.3 - 0.0 - - 10 - - - -
23/02:00pm 13.9 W 14 17 1030.5 - 0.0 - Partly cloudy 10 - - - -
23/01:30pm 13.7 W 11 15 1030.6 - 0.0 - - 10 - - - -
23/01:00pm 13.3 W 14 17 1030.9 - 0.0 - Partly cloudy 10 - - - -
23/12:30pm 12.4 W 15 20 1031.2 - 0.0 - Partly cloudy 10 - - - -
23/12:00pm 12.2 W 11 15 1031.7 F 0.0 - Mostly cloudy 10 - - - -
23/11:30am 12.4 W 12 19 1032.1 - 0.0 - Cloudy 10 - - - -
23/11:00am 11.8 WNW 8 10 1032.4 - 0.0 - Cloudy 10 - - - -
23/10:30am 10.6 WNW 8 11 1032.8 - 0.0 - Cloudy 10 - - - -
23/10:00am 9.6 WNW 9 11 1032.9 - 0.0 - Cloudy 10 - - - -
23/09:30am 8.9 NW 6 7 1032.9 - 0.0 - Cloudy 10 - - - -
23/09:00am 8.2 NW 6 8 1032.8 R 0.2 - Cloudy 10 - - - -
23/08:30am 7.8 NW 7 8 1032.6 - 0.2 - Cloudy 10 - - - -
23/08:00am 7.7 NW 6 7 1032.4 - 0.2 - Cloudy 10 - - - -

Other Formats:

Comma delimited format used in spreadsheet applications
http://www.bom.gov.au/fwo/IDV60701/IDV60701.94907.axf

JavaScript Object Notation format (JSON) in row-major order
http://www.bom.gov.au/fwo/IDV60701/IDV60701.94907.json